Time;durP1;ratioP1;P1;durP2;ratioP2;P2;SDS_P1;SDS_P2;PMS_P1;PMS_P2;Temp;Humidity;BMP_temperature;BMP_pressure;BME280_temperature;BME280_humidity;BME280_pressure;Samples;Min_cycle;Max_cycle;Signal;HPM_P1;HPM_P2
2022/03/01 00:01:11;;;;;;;14.77;7.05;;;0.50;98.50;;;;;;5046007;28;20033;-88
2022/03/01 00:03:37;;;;;;;13.75;6.32;;;0.50;98.30;;;;;;5046692;28;20486;-90
2022/03/01 00:06:03;;;;;;;18.63;6.82;;;0.50;98.30;;;;;;5046346;28;20033;-89
2022/03/01 00:08:29;;;;;;;15.05;6.95;;;0.50;98.20;;;;;;5050787;28;20020;-88
2022/03/01 00:10:54;;;;;;;18.08;6.30;;;0.60;98.10;;;;;;5057979;28;20401;-87
2022/03/01 00:13:20;;;;;;;16.15;6.65;;;0.60;98.10;;;;;;5056499;28;20033;-88
2022/03/01 00:15:46;;;;;;;14.52;7.25;;;0.60;97.90;;;;;;5056690;28;20068;-86
2022/03/01 00:18:12;;;;;;;16.27;7.07;;;0.60;97.70;;;;;;5058821;28;20044;-86
2022/03/01 00:20:37;;;;;;;14.20;6.82;;;0.60;97.70;;;;;;5057907;28;20033;-87
2022/03/01 00:23:03;;;;;;;16.25;6.95;;;0.60;97.50;;;;;;5056534;28;20024;-86
2022/03/01 00:25:29;;;;;;;14.38;6.70;;;0.50;97.60;;;;;;5050944;28;20052;-88
2022/03/01 00:27:55;;;;;;;23.15;7.95;;;0.50;97.50;;;;;;5054075;28;20040;-86
2022/03/01 00:30:21;;;;;;;15.07;6.47;;;0.40;97.60;;;;;;5049685;28;20044;-87
2022/03/01 00:32:47;;;;;;;16.95;6.65;;;0.40;97.40;;;;;;5047977;28;20492;-87
2022/03/01 00:35:12;;;;;;;17.77;7.47;;;0.40;97.60;;;;;;5047053;28;20025;-87
2022/03/01 00:37:38;;;;;;;17.30;6.95;;;0.30;97.50;;;;;;5037865;28;20033;-87
2022/03/01 00:40:05;;;;;;;17.00;7.18;;;0.30;97.50;;;;;;5051629;28;20564;-87
2022/03/01 00:42:31;;;;;;;12.45;6.32;;;0.30;97.70;;;;;;5048336;28;20021;-86
2022/03/01 00:44:57;;;;;;;18.50;6.78;;;0.20;97.70;;;;;;5043915;28;20087;-86
2022/03/01 00:47:22;;;;;;;18.05;6.85;;;0.20;97.70;;;;;;5053518;28;20037;-86
2022/03/01 00:49:48;;;;;;;15.88;7.30;;;0.20;98.00;;;;;;5052863;28;20029;-88
2022/03/01 00:52:14;;;;;;;16.50;6.63;;;0.20;97.90;;;;;;5044445;28;20021;-86
2022/03/01 00:54:40;;;;;;;18.33;7.05;;;0.20;98.00;;;;;;5055325;28;20049;-85
2022/03/01 00:57:08;;;;;;;22.00;7.85;;;0.10;98.00;;;;;;5056466;28;20040;-87
2022/03/01 00:59:34;;;;;;;15.23;6.57;;;0.10;98.20;;;;;;5047935;28;20033;-86
2022/03/01 01:02:00;;;;;;;15.27;6.88;;;0.10;98.20;;;;;;5048019;28;20029;-87
2022/03/01 01:04:25;;;;;;;16.35;7.30;;;0.10;98.30;;;;;;5056936;28;20018;-85
2022/03/01 01:06:51;;;;;;;16.23;6.15;;;0.10;98.30;;;;;;5057400;28;20033;-87
2022/03/01 01:09:17;;;;;;;16.30;7.07;;;0.10;98.40;;;;;;5051028;28;20088;-87
2022/03/01 01:11:43;;;;;;;17.88;7.28;;;0.00;98.50;;;;;;5055996;28;20010;-86
2022/03/01 01:14:09;;;;;;;15.02;6.60;;;0.00;98.50;;;;;;5039961;28;20277;-86
2022/03/01 01:16:35;;;;;;;18.25;7.30;;;0.00;98.60;;;;;;5057485;28;20014;-86
2022/03/01 01:19:01;;;;;;;15.15;7.32;;;-0.10;98.70;;;;;;5056536;28;20036;-88
2022/03/01 01:22:39;;;;;;;23.95;8.13;;;-0.10;98.80;;;;;;5056421;28;20068;-87
2022/03/01 01:24:13;;;;;;;19.13;7.03;;;-0.10;98.90;;;;;;5054391;28;20033;-86
2022/03/01 01:26:38;;;;;;;23.80;7.85;;;-0.10;99.00;;;;;;5038005;28;20382;-85
2022/03/01 01:29:04;;;;;;;16.63;7.60;;;-0.10;99.10;;;;;;5052227;28;20037;-86
2022/03/01 01:31:30;;;;;;;18.55;7.75;;;-0.20;99.20;;;;;;5054128;28;20040;-85
2022/03/01 01:33:56;;;;;;;17.10;6.80;;;-0.20;99.30;;;;;;5054052;28;20029;-86
2022/03/01 01:36:25;;;;;;;20.02;7.25;;;-0.20;99.40;;;;;;5054394;28;20085;-87
2022/03/01 01:38:52;;;;;;;16.77;7.65;;;-0.20;99.40;;;;;;5053030;28;20036;-88
2022/03/01 01:41:18;;;;;;;18.40;7.03;;;-0.20;99.50;;;;;;5052785;28;20120;-87
2022/03/01 01:43:44;;;;;;;16.92;7.00;;;-0.20;99.60;;;;;;5054333;28;20029;-87
2022/03/01 01:46:10;;;;;;;17.25;7.13;;;-0.20;99.60;;;;;;5054809;28;20021;-86
2022/03/01 01:48:36;;;;;;;16.13;7.18;;;-0.20;99.70;;;;;;5060937;28;20029;-87
2022/03/01 01:51:01;;;;;;;16.00;7.68;;;-0.20;99.70;;;;;;5061378;28;20018;-85
2022/03/01 01:53:27;;;;;;;19.95;8.13;;;-0.20;99.90;;;;;;5059682;28;20029;-88
2022/03/01 01:55:53;;;;;;;16.92;7.88;;;-0.20;99.80;;;;;;5051300;28;20480;-88
2022/03/01 01:58:19;;;;;;;22.70;8.18;;;-0.20;99.90;;;;;;5049550;28;20034;-88
2022/03/01 02:00:45;;;;;;;15.85;7.22;;;-0.20;99.90;;;;;;5032595;28;20053;-88
2022/03/01 02:03:11;;;;;;;20.85;8.10;;;-0.20;99.90;;;;;;5050309;28;20033;-87
2022/03/01 02:05:37;;;;;;;18.83;7.85;;;-0.30;99.90;;;;;;5048427;28;20060;-86
2022/03/01 02:08:03;;;;;;;22.85;7.97;;;-0.30;99.90;;;;;;5050662;28;20097;-87
2022/03/01 02:10:29;;;;;;;16.63;7.93;;;-0.30;99.90;;;;;;5052687;28;20033;-86
2022/03/01 02:12:59;;;;;;;16.55;7.80;;;-0.30;99.90;;;;;;5048609;28;20025;-87
2022/03/01 02:15:25;;;;;;;23.30;8.60;;;-0.30;99.90;;;;;;5049309;28;20040;-88
2022/03/01 02:17:51;;;;;;;19.98;8.07;;;-0.30;99.90;;;;;;5049976;28;20056;-88
2022/03/01 02:20:19;;;;;;;15.23;7.38;;;-0.30;99.90;;;;;;5051456;28;20025;-87
2022/03/01 02:22:47;;;;;;;20.20;8.30;;;-0.30;99.90;;;;;;5034938;28;20106;-85
2022/03/01 02:25:13;;;;;;;21.60;7.18;;;-0.30;99.90;;;;;;5061139;28;20033;-87
2022/03/01 02:27:40;;;;;;;21.38;7.53;;;-0.30;99.90;;;;;;5057394;28;20021;-89
2022/03/01 02:30:07;;;;;;;19.83;7.90;;;-0.40;99.90;;;;;;5051233;28;20009;-86
2022/03/01 02:32:33;;;;;;;23.58;8.07;;;-0.40;99.90;;;;;;5051269;28;20025;-90
2022/03/01 02:35:00;;;;;;;20.48;8.25;;;-0.40;99.90;;;;;;5045177;28;20032;-87
2022/03/01 02:37:25;;;;;;;19.38;7.88;;;-0.40;99.90;;;;;;5058983;28;20017;-85
2022/03/01 02:39:53;;;;;;;23.30;8.15;;;-0.40;99.90;;;;;;5058960;28;20073;-88
2022/03/01 02:42:20;;;;;;;19.02;7.90;;;-0.40;99.90;;;;;;5058881;28;20110;-86
2022/03/01 02:44:48;;;;;;;19.88;7.55;;;-0.40;99.90;;;;;;5059821;28;20014;-86
2022/03/01 02:47:15;;;;;;;20.35;7.78;;;-0.40;99.90;;;;;;5055676;28;20029;-87
2022/03/01 02:49:41;;;;;;;19.33;8.35;;;-0.40;99.90;;;;;;5047262;28;20029;-88
2022/03/01 02:52:07;;;;;;;17.67;8.07;;;-0.40;99.90;;;;;;5046356;28;20052;-88
2022/03/01 02:54:33;;;;;;;19.65;8.77;;;-0.40;99.90;;;;;;5051821;28;20037;-88
2022/03/01 02:57:01;;;;;;;21.85;8.70;;;-0.40;99.90;;;;;;5055421;28;20048;-87
2022/03/01 02:59:28;;;;;;;22.60;8.07;;;-0.40;99.90;;;;;;5057535;28;20017;-86
2022/03/01 03:01:55;;;;;;;18.50;8.27;;;-0.40;99.90;;;;;;5058175;28;20037;-86
2022/03/01 03:04:22;;;;;;;21.48;8.00;;;-0.40;99.90;;;;;;5056306;28;20030;-89
2022/03/01 03:06:48;;;;;;;18.42;8.35;;;-0.40;99.90;;;;;;5045372;28;20088;-87
2022/03/01 03:09:15;;;;;;;20.30;7.80;;;-0.30;99.90;;;;;;5045399;28;20393;-88
2022/03/01 03:11:41;;;;;;;24.58;8.18;;;-0.40;99.90;;;;;;5054148;28;20026;-89
2022/03/01 03:14:07;;;;;;;19.45;8.65;;;-0.30;99.90;;;;;;5048290;28;20038;-87
2022/03/01 03:16:33;;;;;;;21.48;8.30;;;-0.40;99.90;;;;;;5045077;28;20027;-88
2022/03/01 03:18:59;;;;;;;23.08;9.32;;;-0.40;99.90;;;;;;5043222;28;20033;-87
2022/03/01 03:21:25;;;;;;;16.50;7.78;;;-0.40;99.90;;;;;;5045211;28;20022;-88
2022/03/01 03:23:50;;;;;;;18.05;8.07;;;-0.40;99.90;;;;;;5053615;28;20024;-88
2022/03/01 03:26:16;;;;;;;17.60;9.00;;;-0.40;99.90;;;;;;5031504;28;20109;-88
2022/03/01 03:28:42;;;;;;;17.20;8.60;;;-0.50;99.90;;;;;;5044799;28;20032;-88
2022/03/01 03:31:08;;;;;;;22.23;9.02;;;-0.50;99.90;;;;;;5043936;28;20057;-87
2022/03/01 03:33:34;;;;;;;23.98;9.10;;;-0.50;99.90;;;;;;5044238;28;20060;-88
2022/03/01 03:36:00;;;;;;;18.92;8.73;;;-0.60;99.90;;;;;;5042117;28;20030;-89
2022/03/01 03:38:26;;;;;;;22.70;9.27;;;-0.60;99.90;;;;;;5045090;28;20037;-89
2022/03/01 03:40:52;;;;;;;24.63;9.75;;;-0.60;99.90;;;;;;5043513;28;20029;-89
2022/03/01 03:43:19;;;;;;;25.23;9.93;;;-0.70;99.90;;;;;;5044592;28;20037;-87
2022/03/01 03:45:46;;;;;;;22.30;9.55;;;-0.70;99.90;;;;;;5043027;28;20025;-87
2022/03/01 03:48:11;;;;;;;24.63;9.48;;;-0.70;99.90;;;;;;5034464;22;20030;-86
2022/03/01 03:50:37;;;;;;;20.02;8.98;;;-0.80;99.90;;;;;;5018110;28;20018;-88
2022/03/01 03:53:03;;;;;;;21.48;9.93;;;-0.70;99.90;;;;;;5017010;28;20058;-88
2022/03/01 03:55:29;;;;;;;25.90;9.35;;;-0.80;99.90;;;;;;5009566;28;20061;-87
2022/03/01 03:57:56;;;;;;;21.80;9.05;;;-0.90;99.90;;;;;;5015674;28;20014;-88
2022/03/01 04:00:22;;;;;;;24.02;8.70;;;-0.90;99.90;;;;;;5015508;28;20098;-87
2022/03/01 04:02:52;;;;;;;26.92;10.38;;;-0.90;99.90;;;;;;5012141;28;20030;-86
2022/03/01 04:05:18;;;;;;;23.00;9.68;;;-0.90;99.90;;;;;;5017043;28;20015;-89
2022/03/01 04:07:46;;;;;;;28.15;10.13;;;-0.90;99.90;;;;;;5013664;28;20045;-88
2022/03/01 04:10:12;;;;;;;23.65;9.95;;;-0.90;99.90;;;;;;5014217;28;20067;-88
2022/03/01 04:12:39;;;;;;;24.63;9.68;;;-1.00;99.90;;;;;;5013739;28;20026;-88
2022/03/01 04:15:06;;;;;;;23.88;10.00;;;-0.90;99.90;;;;;;4998701;28;20105;-87
2022/03/01 04:17:32;;;;;;;26.08;10.02;;;-1.00;99.90;;;;;;5015446;28;20030;-88
2022/03/01 04:19:58;;;;;;;20.15;9.00;;;-1.00;99.90;;;;;;4998078;28;20031;-88
2022/03/01 04:22:24;;;;;;;27.80;9.75;;;-1.00;99.90;;;;;;5013165;28;20034;-89
2022/03/01 04:24:50;;;;;;;29.10;9.85;;;-1.00;99.90;;;;;;5012410;28;20031;-89
2022/03/01 04:27:17;;;;;;;21.67;9.95;;;-1.00;99.90;;;;;;5011242;28;20027;-89
2022/03/01 04:29:43;;;;;;;22.90;9.80;;;-0.90;99.90;;;;;;5012617;28;20041;-88
2022/03/01 04:32:10;;;;;;;21.40;9.65;;;-0.90;99.90;;;;;;5013731;28;20041;-87
2022/03/01 04:34:36;;;;;;;23.05;10.13;;;-0.90;99.90;;;;;;5016856;28;20011;-88
2022/03/01 04:37:02;;;;;;;26.95;9.88;;;-0.90;99.90;;;;;;5019256;28;20077;-88
2022/03/01 04:39:29;;;;;;;24.70;10.35;;;-1.00;99.90;;;;;;5019186;28;20106;-87
2022/03/01 04:41:56;;;;;;;20.23;9.27;;;-1.10;99.90;;;;;;5018782;28;20092;-88
2022/03/01 04:44:22;;;;;;;27.35;10.65;;;-1.10;99.90;;;;;;5018710;28;20034;-88
2022/03/01 04:46:48;;;;;;;24.45;10.55;;;-1.20;99.90;;;;;;5002558;28;20057;-87
2022/03/01 04:49:15;;;;;;;21.13;9.52;;;-1.30;99.90;;;;;;5016603;28;20050;-88
2022/03/01 04:51:41;;;;;;;24.33;10.30;;;-1.30;99.90;;;;;;5012187;28;20549;-87
2022/03/01 04:54:07;;;;;;;25.30;9.98;;;-1.30;99.90;;;;;;5017125;28;20027;-87
2022/03/01 04:56:33;;;;;;;20.75;9.60;;;-1.30;99.90;;;;;;5018656;28;20030;-87
2022/03/01 04:58:59;;;;;;;28.30;10.00;;;-1.40;99.90;;;;;;5002638;28;20038;-87
2022/03/01 05:01:25;;;;;;;25.30;11.23;;;-1.40;99.90;;;;;;5018917;28;20026;-86
2022/03/01 05:03:51;;;;;;;23.88;9.88;;;-1.40;99.90;;;;;;5002024;28;20069;-87
2022/03/01 05:06:18;;;;;;;25.48;9.43;;;-1.40;99.90;;;;;;5018030;28;20033;-89
2022/03/01 05:08:43;;;;;;;19.90;9.70;;;-1.40;99.90;;;;;;5018065;28;20018;-86
2022/03/01 05:11:09;;;;;;;20.10;9.75;;;-1.30;99.90;;;;;;5002037;28;20061;-86
2022/03/01 05:13:35;;;;;;;26.23;9.95;;;-1.30;99.90;;;;;;5019140;28;20025;-88
2022/03/01 05:16:01;;;;;;;25.05;10.23;;;-1.30;99.90;;;;;;5018626;28;20045;-87
2022/03/01 05:18:27;;;;;;;25.73;10.10;;;-1.20;99.90;;;;;;5018042;28;20090;-87
2022/03/01 05:20:53;;;;;;;24.90;10.00;;;-1.20;99.90;;;;;;5000868;28;20022;-88
2022/03/01 05:23:19;;;;;;;32.47;10.27;;;-1.20;99.90;;;;;;5017228;28;20065;-87
2022/03/01 05:25:45;;;;;;;24.33;9.73;;;-1.20;99.90;;;;;;5005178;28;20030;-86
2022/03/01 05:28:11;;;;;;;28.20;11.05;;;-1.20;99.90;;;;;;5006847;28;20089;-87
2022/03/01 05:30:37;;;;;;;25.95;10.32;;;-1.20;99.90;;;;;;5008303;28;20052;-87
2022/03/01 05:33:03;;;;;;;27.30;10.00;;;-1.20;99.90;;;;;;5017529;28;20050;-84
2022/03/01 05:35:30;;;;;;;24.35;10.07;;;-1.20;99.90;;;;;;5018813;28;20022;-83
2022/03/01 05:37:57;;;;;;;23.83;10.50;;;-1.20;99.90;;;;;;5017985;28;20070;-84
2022/03/01 05:40:27;;;;;;;27.20;11.25;;;-1.20;99.90;;;;;;5017191;28;20018;-87
2022/03/01 05:42:53;;;;;;;26.00;10.88;;;-1.30;99.90;;;;;;5011291;28;20027;-88
2022/03/01 05:45:20;;;;;;;29.58;11.15;;;-1.20;99.90;;;;;;5013233;28;20584;-88
2022/03/01 05:47:46;;;;;;;25.65;10.60;;;-1.20;99.90;;;;;;5015753;28;20010;-86
2022/03/01 05:50:14;;;;;;;30.65;10.45;;;-1.20;99.90;;;;;;5014448;28;20502;-88
2022/03/01 05:52:40;;;;;;;24.73;10.75;;;-1.20;99.90;;;;;;5016628;28;20033;-84
2022/03/01 05:55:08;;;;;;;22.60;10.65;;;-1.10;99.90;;;;;;5017558;28;20030;-85
2022/03/01 05:57:35;;;;;;;32.20;11.25;;;-1.10;99.90;;;;;;5017977;28;20030;-85
2022/03/01 06:00:01;;;;;;;25.13;10.93;;;-1.10;99.90;;;;;;5000766;28;20033;-84
2022/03/01 06:02:27;;;;;;;31.13;11.85;;;-1.10;99.90;;;;;;5017093;28;20045;-85
2022/03/01 06:04:53;;;;;;;31.50;11.40;;;-1.10;99.90;;;;;;5017642;28;20011;-85
2022/03/01 06:07:19;;;;;;;27.20;11.35;;;-1.00;99.90;;;;;;5016920;28;20027;-85
2022/03/01 06:09:45;;;;;;;43.22;11.82;;;-1.00;99.90;;;;;;5017576;28;20038;-84
2022/03/01 06:12:11;;;;;;;43.03;12.15;;;-1.00;99.90;;;;;;5016389;28;20022;-84
2022/03/01 06:14:37;;;;;;;36.70;10.65;;;-0.90;99.90;;;;;;5017165;28;20029;-85
2022/03/01 06:17:03;;;;;;;36.60;10.95;;;-0.90;99.90;;;;;;5017212;28;20023;-85
2022/03/01 06:19:29;;;;;;;37.05;11.55;;;-0.80;99.90;;;;;;5016418;28;20042;-84
2022/03/01 06:21:56;;;;;;;39.03;10.52;;;-0.70;99.90;;;;;;5016846;28;20034;-84
2022/03/01 06:24:23;;;;;;;39.42;12.70;;;-0.60;99.90;;;;;;4999469;28;20036;-88
2022/03/01 06:26:49;;;;;;;30.52;11.73;;;-0.50;99.90;;;;;;5014920;28;20650;-86
2022/03/01 06:29:15;;;;;;;36.85;11.73;;;-0.50;99.90;;;;;;5016543;28;20034;-87
2022/03/01 06:31:41;;;;;;;31.30;11.43;;;-0.50;99.90;;;;;;5016310;28;20015;-85
2022/03/01 06:34:07;;;;;;;33.38;11.45;;;-0.30;99.90;;;;;;5020353;28;20027;-84
2022/03/01 06:36:33;;;;;;;21.77;10.65;;;-0.30;99.90;;;;;;5020315;28;20030;-85
2022/03/01 06:38:59;;;;;;;23.00;10.98;;;-0.20;99.90;;;;;;5020372;28;20034;-86
2022/03/01 06:41:24;;;;;;;27.42;11.18;;;-0.10;99.90;;;;;;5019833;28;20058;-85
2022/03/01 06:43:50;;;;;;;31.27;11.43;;;-0.10;99.90;;;;;;5018812;28;20037;-85
2022/03/01 06:46:16;;;;;;;27.98;10.85;;;0.00;99.90;;;;;;5019545;28;20030;-85
2022/03/01 06:48:41;;;;;;;31.27;12.13;;;0.10;99.90;;;;;;5002606;28;20050;-85
2022/03/01 06:51:07;;;;;;;26.75;11.13;;;0.10;99.90;;;;;;5003201;28;20014;-85
2022/03/01 06:53:37;;;;;;;25.58;11.02;;;0.20;99.90;;;;;;5018773;28;20038;-88
2022/03/01 06:56:03;;;;;;;26.70;11.25;;;0.30;99.90;;;;;;5014001;28;20026;-90
2022/03/01 06:58:29;;;;;;;21.83;10.27;;;0.30;99.90;;;;;;5015168;28;20076;-88
2022/03/01 07:00:56;;;;;;;29.48;11.48;;;0.40;99.90;;;;;;5012670;28;20109;-87
2022/03/01 07:03:22;;;;;;;29.52;11.45;;;0.50;99.90;;;;;;5011450;28;20034;-89
2022/03/01 07:05:49;;;;;;;29.65;11.63;;;0.70;99.90;;;;;;5013636;28;20093;-89
2022/03/01 07:08:14;;;;;;;22.10;10.50;;;0.70;99.90;;;;;;5011682;28;20026;-88
2022/03/01 07:10:41;;;;;;;26.92;11.02;;;0.70;99.90;;;;;;5010989;28;20026;-88
2022/03/01 07:13:07;;;;;;;26.98;11.50;;;0.80;99.90;;;;;;5010176;28;20026;-89
2022/03/01 07:15:35;;;;;;;27.50;11.70;;;0.80;99.90;;;;;;5013270;28;20045;-87
2022/03/01 07:18:01;;;;;;;27.73;11.05;;;0.80;99.90;;;;;;5016262;28;20026;-89
2022/03/01 07:20:27;;;;;;;28.98;11.48;;;0.90;99.90;;;;;;5014072;28;20022;-89
2022/03/01 07:22:53;;;;;;;37.38;12.15;;;0.90;99.90;;;;;;5015145;28;20026;-87
2022/03/01 07:25:19;;;;;;;27.02;11.70;;;1.00;99.90;;;;;;5011535;28;20061;-89
2022/03/01 07:27:49;;;;;;;26.55;11.57;;;1.10;99.90;;;;;;5009994;28;20026;-88
2022/03/01 07:30:16;;;;;;;25.70;11.23;;;1.10;99.90;;;;;;5016480;28;20026;-87
2022/03/01 07:32:42;;;;;;;26.55;11.50;;;1.20;99.90;;;;;;5017904;28;20042;-86
2022/03/01 07:35:08;;;;;;;26.63;11.35;;;1.20;99.90;;;;;;5001673;28;20053;-86
2022/03/01 07:37:34;;;;;;;28.92;11.93;;;1.20;99.90;;;;;;5019496;28;20038;-87
2022/03/01 07:40:01;;;;;;;26.45;12.05;;;1.20;99.90;;;;;;5020126;28;20021;-85
2022/03/01 07:42:27;;;;;;;27.60;11.80;;;1.30;99.90;;;;;;5019505;28;20042;-86
2022/03/01 07:44:53;;;;;;;29.38;11.70;;;1.30;99.90;;;;;;5018213;28;20052;-84
2022/03/01 07:47:19;;;;;;;26.20;11.82;;;1.30;99.90;;;;;;5018235;28;20070;-85
2022/03/01 07:49:47;;;;;;;28.20;11.60;;;1.40;99.90;;;;;;5015748;28;20041;-87
2022/03/01 07:52:12;;;;;;;28.58;12.15;;;1.50;99.90;;;;;;5016310;28;20038;-87
2022/03/01 07:54:38;;;;;;;26.23;11.98;;;1.50;99.90;;;;;;5015343;28;20081;-84
2022/03/01 07:57:04;;;;;;;25.63;11.23;;;1.60;99.90;;;;;;5018797;28;20042;-84
2022/03/01 07:59:30;;;;;;;29.98;12.90;;;1.60;99.90;;;;;;5019047;28;20023;-85
2022/03/01 08:01:56;;;;;;;31.95;12.48;;;1.60;99.90;;;;;;5019475;28;20041;-85
2022/03/01 08:04:21;;;;;;;27.88;12.77;;;1.60;99.90;;;;;;5019213;28;20018;-86
2022/03/01 08:06:49;;;;;;;30.70;13.00;;;1.50;99.90;;;;;;5018844;28;20084;-87
2022/03/01 08:09:15;;;;;;;28.88;12.40;;;1.50;99.90;;;;;;5019030;28;20014;-86
2022/03/01 08:11:41;;;;;;;27.25;12.48;;;1.50;99.90;;;;;;5018694;28;20037;-84
2022/03/01 08:14:06;;;;;;;30.42;13.27;;;1.60;99.90;;;;;;5019342;28;20011;-85
2022/03/01 08:16:32;;;;;;;28.15;11.98;;;1.70;99.90;;;;;;5017697;28;20038;-86
2022/03/01 08:18:58;;;;;;;40.47;12.75;;;1.80;99.90;;;;;;5017542;28;20018;-84
2022/03/01 08:21:24;;;;;;;30.38;12.55;;;1.80;99.90;;;;;;5018382;28;20028;-85
2022/03/01 08:23:49;;;;;;;27.52;12.73;;;1.90;99.90;;;;;;5015765;28;20092;-87
2022/03/01 08:26:15;;;;;;;29.45;12.77;;;1.90;99.90;;;;;;5014485;28;20057;-87
2022/03/01 08:28:41;;;;;;;32.47;13.25;;;1.80;99.90;;;;;;5014875;28;20018;-88
2022/03/01 08:31:08;;;;;;;30.13;13.63;;;1.90;99.90;;;;;;5015098;28;20030;-86
2022/03/01 08:33:34;;;;;;;27.95;13.20;;;2.10;99.90;;;;;;5014772;28;20070;-86
2022/03/01 08:36:01;;;;;;;30.92;13.25;;;2.10;99.90;;;;;;5012827;28;20023;-86
2022/03/01 08:38:27;;;;;;;34.65;13.55;;;2.20;99.90;;;;;;5012949;28;20057;-89
2022/03/01 08:40:53;;;;;;;34.00;13.20;;;2.30;99.90;;;;;;5012189;28;20030;-86
2022/03/01 08:43:20;;;;;;;31.10;12.93;;;2.40;99.90;;;;;;5017259;28;20049;-85
2022/03/01 08:45:45;;;;;;;29.58;12.77;;;2.40;99.90;;;;;;5015848;28;20069;-87
2022/03/01 08:48:11;;;;;;;31.17;12.70;;;2.40;99.90;;;;;;5015759;28;20038;-84
2022/03/01 08:50:37;;;;;;;30.52;13.38;;;2.40;99.90;;;;;;5017915;28;20014;-85
2022/03/01 08:53:04;;;;;;;32.05;13.65;;;2.30;99.90;;;;;;5014483;28;20031;-88
2022/03/01 08:55:30;;;;;;;34.28;13.30;;;2.50;99.90;;;;;;5013898;28;20041;-87
2022/03/01 08:57:57;;;;;;;29.92;13.88;;;2.60;99.90;;;;;;5013557;28;20041;-90
2022/03/01 09:00:23;;;;;;;29.08;13.40;;;2.80;99.90;;;;;;5014384;28;20029;-86
2022/03/01 09:02:49;;;;;;;27.73;12.75;;;3.10;99.90;;;;;;5017595;28;20049;-85
2022/03/01 09:05:15;;;;;;;28.67;13.35;;;3.70;99.90;;;;;;5017898;28;20090;-86
2022/03/01 09:07:41;;;;;;;31.35;12.75;;;4.40;98.60;;;;;;5017985;28;20034;-86
2022/03/01 09:10:07;;;;;;;25.35;12.27;;;5.20;97.00;;;;;;5017965;28;20053;-86
2022/03/01 09:12:34;;;;;;;28.58;12.48;;;6.40;95.20;;;;;;5017748;28;20014;-87
2022/03/01 09:15:00;;;;;;;27.52;12.75;;;7.40;92.90;;;;;;5016638;28;20018;-88
2022/03/01 09:17:26;;;;;;;27.48;13.40;;;8.00;91.70;;;;;;5016772;28;20028;-85
2022/03/01 09:19:52;;;;;;;23.98;11.65;;;9.10;90.00;;;;;;5017241;28;20023;-88
2022/03/01 09:22:18;;;;;;;22.63;11.30;;;9.80;85.50;;;;;;5016965;28;20045;-86
2022/03/01 09:24:45;;;;;;;23.55;12.30;;;10.50;81.60;;;;;;5017093;28;20037;-86
2022/03/01 09:27:12;;;;;;;24.80;11.98;;;11.00;79.80;;;;;;5017285;28;20044;-87
2022/03/01 09:29:37;;;;;;;22.35;11.18;;;11.60;76.30;;;;;;5013625;28;20037;-89
2022/03/01 09:32:04;;;;;;;20.23;10.50;;;11.50;75.30;;;;;;5015742;28;20038;-87
2022/03/01 09:34:30;;;;;;;17.77;10.50;;;11.80;73.40;;;;;;5017197;28;20049;-86
2022/03/01 09:36:56;;;;;;;23.58;12.27;;;12.70;72.30;;;;;;5014701;28;20031;-89
2022/03/01 09:39:23;;;;;;;21.27;11.13;;;13.50;69.60;;;;;;5011070;28;20098;-90
2022/03/01 09:41:50;;;;;;;26.00;13.18;;;14.30;67.00;;;;;;5011213;28;20034;-88
2022/03/01 09:44:17;;;;;;;22.77;12.57;;;15.00;64.90;;;;;;5011211;28;20030;-88
2022/03/01 09:49:34;;;;;;;24.50;12.23;;;15.60;62.30;;;;;;5037297;28;20033;-91
2022/03/01 09:52:00;;;;;;;22.92;12.20;;;15.90;60.60;;;;;;5037123;28;20018;-92
2022/03/01 09:54:28;;;;;;;25.05;11.82;;;15.60;60.60;;;;;;5036752;28;20045;-92
2022/03/01 09:56:54;;;;;;;20.88;11.43;;;15.80;59.80;;;;;;5036894;28;20124;-92
2022/03/01 09:59:20;;;;;;;25.92;12.00;;;15.60;59.50;;;;;;5036874;28;20032;-90
2022/03/01 10:01:50;;;;;;;19.38;11.43;;;16.30;58.80;;;;;;5019999;28;20014;-89
2022/03/01 10:04:17;;;;;;;22.23;11.70;;;16.70;57.60;;;;;;5053108;28;20034;-88
2022/03/01 10:06:48;;;;;;;24.08;11.10;;;16.70;56.60;;;;;;5020039;28;20025;-90
2022/03/01 10:09:23;;;;;;;25.30;11.13;;;16.60;56.60;;;;;;5040631;28;20018;-91
2022/03/01 10:11:50;;;;;;;20.77;11.10;;;16.20;56.90;;;;;;5040964;28;20018;-89
2022/03/01 10:14:27;;;;;;;21.15;11.88;;;16.60;56.60;;;;;;5041208;28;20026;-91
2022/03/01 10:16:53;;;;;;;20.38;11.15;;;16.80;56.10;;;;;;5040196;28;20022;-91
2022/03/01 10:19:21;;;;;;;20.85;11.88;;;17.20;55.80;;;;;;5039809;28;20018;-90
2022/03/01 10:21:49;;;;;;;17.92;11.35;;;17.70;54.60;;;;;;5040015;28;20029;-90
2022/03/01 10:24:19;;;;;;;19.80;10.95;;;17.60;54.50;;;;;;5023665;28;20098;-90
2022/03/01 10:26:47;;;;;;;17.63;10.70;;;18.20;53.50;;;;;;5040102;28;20080;-90
2022/03/01 10:29:13;;;;;;;18.52;10.20;;;18.60;52.50;;;;;;5040549;28;20020;-90
2022/03/01 10:31:39;;;;;;;20.38;10.85;;;19.00;51.80;;;;;;5039973;28;20028;-91
2022/03/01 10:34:11;;;;;;;21.20;11.13;;;19.20;51.40;;;;;;5023601;28;20014;-91
2022/03/01 10:36:46;;;;;;;21.00;11.55;;;19.10;51.40;;;;;;5040228;28;20102;-89
2022/03/01 10:39:27;;;;;;;18.65;11.60;;;19.20;51.20;;;;;;5039890;28;20029;-92
2022/03/01 10:41:54;;;;;;;21.30;12.10;;;19.10;51.00;;;;;;5056267;28;20022;-91
2022/03/01 10:44:28;;;;;;;19.58;11.68;;;19.30;51.10;;;;;;5040668;28;20058;-92
2022/03/01 10:47:02;;;;;;;23.25;11.85;;;19.10;50.50;;;;;;5040455;28;20025;-91
2022/03/01 10:49:35;;;;;;;24.80;12.03;;;19.70;50.30;;;;;;5039974;28;20025;-91
2022/03/01 10:52:08;;;;;;;21.35;10.80;;;20.20;49.60;;;;;;5023721;28;20026;-90
2022/03/01 10:54:39;;;;;;;19.20;11.05;;;19.90;49.10;;;;;;5040088;28;20018;-92
2022/03/01 10:57:07;;;;;;;20.13;11.18;;;19.20;49.80;;;;;;5039981;28;20061;-91
2022/03/01 10:59:34;;;;;;;22.67;11.65;;;18.70;50.30;;;;;;5039972;28;20014;-93
2022/03/01 11:02:02;;;;;;;22.13;12.00;;;19.10;50.10;;;;;;5022779;28;20018;-91
2022/03/01 11:04:28;;;;;;;17.02;10.25;;;19.40;49.90;;;;;;5039065;28;20044;-90
2022/03/01 11:07:00;;;;;;;18.17;10.65;;;19.60;50.10;;;;;;5039268;28;20045;-91
2022/03/01 11:09:31;;;;;;;16.88;10.15;;;20.20;48.30;;;;;;5039752;28;20033;-91
2022/03/01 11:11:59;;;;;;;18.63;10.43;;;20.70;47.60;;;;;;5039036;28;20025;-90
2022/03/01 11:15:04;;;;;;;16.48;10.23;;;21.00;47.80;;;;;;5038898;28;20010;-90
2022/03/01 11:18:16;;;;;;;18.20;11.10;;;21.40;46.80;;;;;;5039731;28;20034;-92
2022/03/01 11:20:46;;;;;;;21.52;12.48;;;21.00;46.80;;;;;;5021973;28;20018;-90
2022/03/01 11:23:15;;;;;;;19.92;12.23;;;21.20;46.80;;;;;;5039434;28;20014;-91
2022/03/01 11:25:46;;;;;;;26.02;12.65;;;20.70;46.60;;;;;;5040020;28;20041;-93
2022/03/01 11:28:16;;;;;;;28.75;13.18;;;20.50;47.00;;;;;;5039289;28;20038;-90
2022/03/01 11:30:51;;;;;;;25.70;13.30;;;19.90;47.50;;;;;;5038899;28;20030;-91
2022/03/01 11:33:27;;;;;;;31.05;13.68;;;19.70;48.00;;;;;;5039058;28;20018;-91
2022/03/01 11:35:55;;;;;;;21.50;12.55;;;20.30;47.30;;;;;;5039322;28;20018;-92
2022/03/01 11:38:28;;;;;;;22.73;12.95;;;20.80;47.10;;;;;;5039807;28;20018;-91
2022/03/01 11:41:07;;;;;;;22.55;12.95;;;21.10;46.40;;;;;;5038846;28;20029;-92
2022/03/01 11:43:37;;;;;;;25.77;12.90;;;20.40;47.10;;;;;;5038843;28;20017;-91
2022/03/01 11:46:17;;;;;;;20.60;12.98;;;20.60;46.70;;;;;;5039029;28;20025;-92
2022/03/01 11:48:51;;;;;;;22.67;13.05;;;21.00;46.40;;;;;;5039355;28;20045;-92
2022/03/01 11:51:18;;;;;;;22.60;12.95;;;21.40;46.30;;;;;;5039154;28;20109;-91
2022/03/01 11:53:49;;;;;;;21.75;13.07;;;21.70;45.60;;;;;;5039205;28;20018;-91
2022/03/01 11:56:18;;;;;;;21.48;12.98;;;22.20;44.80;;;;;;5039191;28;20038;-91
2022/03/01 11:58:49;;;;;;;22.10;13.20;;;22.60;44.60;;;;;;5038591;28;20022;-90
2022/03/01 12:01:21;;;;;;;23.88;12.82;;;22.60;44.40;;;;;;5039602;28;20076;-91
2022/03/01 12:03:49;;;;;;;22.98;12.27;;;22.40;44.90;;;;;;5038820;28;20037;-91
2022/03/01 12:06:21;;;;;;;19.33;11.60;;;22.40;44.50;;;;;;5038614;28;20026;-92
2022/03/01 12:08:56;;;;;;;21.85;13.07;;;22.50;44.00;;;;;;5039235;28;20041;-91
2022/03/01 12:11:41;;;;;;;21.23;12.77;;;22.60;44.10;;;;;;5039150;28;20061;-91
2022/03/01 12:14:19;;;;;;;25.23;12.93;;;22.80;43.60;;;;;;5054878;28;20026;-92
2022/03/01 12:16:46;;;;;;;24.45;13.10;;;22.80;43.50;;;;;;5039170;28;20018;-91
2022/03/01 12:19:18;;;;;;;18.45;11.65;;;22.80;42.90;;;;;;5037800;28;20018;-91
2022/03/01 12:21:53;;;;;;;20.25;12.23;;;22.60;43.10;;;;;;5038958;28;20014;-92
2022/03/01 12:24:20;;;;;;;22.05;12.98;;;22.80;42.90;;;;;;5038947;28;20022;-91
2022/03/01 12:26:50;;;;;;;21.52;13.02;;;23.10;42.60;;;;;;5021754;28;20026;-91
2022/03/01 12:29:22;;;;;;;22.77;12.40;;;22.90;43.10;;;;;;5038723;28;20081;-90
2022/03/01 12:32:18;;;;;;;22.50;12.40;;;22.90;42.50;;;;;;5054200;28;20026;-91
2022/03/01 12:34:46;;;;;;;22.92;11.30;;;22.50;42.70;;;;;;5036936;28;20052;-90
2022/03/01 12:37:18;;;;;;;22.08;12.32;;;22.80;42.10;;;;;;5021740;28;20026;-93